Time;durP1;ratioP1;P1;durP2;ratioP2;P2;SDS_P1;SDS_P2;PMS_P1;PMS_P2;Temp;Humidity;BMP_temperature;BMP_pressure;BME280_temperature;BME280_humidity;BME280_pressure;Samples;Min_cycle;Max_cycle;Signal;HPM_P1;HPM_P2
2022/06/29 00:00:09;;;;;;;;;;;24.80;99.90;;;;;;5059559;28;19922;-72
2022/06/29 00:02:34;;;;;;;;;;;24.90;99.90;;;;;;5077548;28;20257;-71
2022/06/29 00:05:00;;;;;;;;;;;24.80;99.90;;;;;;5059624;28;19916;-72
2022/06/29 00:07:25;;;;;;;;;;;24.80;99.90;;;;;;5077401;28;20284;-72
2022/06/29 00:09:51;;;;;;;;;;;24.80;99.90;;;;;;5077764;28;19917;-71
2022/06/29 00:12:16;;;;;;;;;;;24.70;99.90;;;;;;5077952;28;19912;-72
2022/06/29 00:14:42;;;;;;;;;;;24.70;99.90;;;;;;5077648;28;19958;-71
2022/06/29 00:17:10;;;;;;;;;;;24.60;99.90;;;;;;5077858;28;19913;-71
2022/06/29 00:19:36;;;;;;;;;;;24.60;99.90;;;;;;5059559;28;19932;-72
2022/06/29 00:22:02;;;;;;;;;;;24.60;99.90;;;;;;5059659;28;19936;-71
2022/06/29 00:24:28;;;;;;;;;;;24.50;99.90;;;;;;5077765;28;20623;-72
2022/06/29 00:26:54;;;;;;;;;;;24.40;99.90;;;;;;5077754;28;20372;-71
2022/06/29 00:29:19;;;;;;;;;;;24.30;99.90;;;;;;5077658;28;19919;-72
2022/06/29 00:31:45;;;;;;;;;;;24.20;99.90;;;;;;5077730;28;19917;-72
2022/06/29 00:34:11;;;;;;;;;;;24.20;99.90;;;;;;5077353;28;19912;-72
2022/06/29 00:36:36;;;;;;;;;;;24.10;99.90;;;;;;5077179;28;19955;-72
2022/06/29 00:39:02;;;;;;;;;;;24.10;99.90;;;;;;5059427;28;19923;-71
2022/06/29 00:41:28;;;;;;;;;;;24.00;99.90;;;;;;5077523;28;20331;-71
2022/06/29 00:43:53;;;;;;;;;;;24.00;99.90;;;;;;5077327;28;19967;-71
2022/06/29 00:46:19;;;;;;;;;;;23.90;99.90;;;;;;5077525;28;20368;-72
2022/06/29 00:48:44;;;;;;;;;;;23.90;99.90;;;;;;5077298;28;19923;-72
2022/06/29 00:51:11;;;;;;;;;;;23.90;99.90;;;;;;5059238;28;19948;-72
2022/06/29 00:53:39;;;;;;;;;;;23.90;99.90;;;;;;5077145;28;19920;-72
2022/06/29 00:56:07;;;;;;;;;;;23.90;99.90;;;;;;5074444;28;19991;-72
2022/06/29 00:58:33;;;;;;;;;;;23.80;99.90;;;;;;5073957;28;19916;-72
2022/06/29 01:01:03;;;;;;;;;;;23.80;99.90;;;;;;5074096;28;20371;-71
2022/06/29 01:03:28;;;;;;;;;;;23.80;99.90;;;;;;5073814;28;20396;-72
2022/06/29 01:05:54;;;;;;;;;;;23.70;99.90;;;;;;5073777;28;19959;-72
2022/06/29 01:08:19;;;;;;;;;;;23.70;99.90;;;;;;5073701;28;19970;-71
2022/06/29 01:10:45;;;;;;;;;;;23.70;99.90;;;;;;5073923;28;20292;-72
2022/06/29 01:13:10;;;;;;;;;;;23.70;99.90;;;;;;5073706;28;19916;-71
2022/06/29 01:15:36;;;;;;;;;;;23.70;99.90;;;;;;5073743;28;19908;-71
2022/06/29 01:18:02;;;;;;;;;;;23.70;99.90;;;;;;5073546;28;19923;-71
2022/06/29 01:20:27;;;;;;;;;;;23.80;99.90;;;;;;5073746;28;19916;-71
2022/06/29 01:22:53;;;;;;;;;;;23.60;99.90;;;;;;5055513;28;19924;-71
2022/06/29 01:25:19;;;;;;;;;;;23.70;99.90;;;;;;5073417;28;20318;-72
2022/06/29 01:27:44;;;;;;;;;;;23.60;99.90;;;;;;5073506;28;19917;-72
2022/06/29 01:30:11;;;;;;;;;;;23.60;99.90;;;;;;5073377;28;19912;-71
2022/06/29 01:32:40;;;;;;;;;;;23.60;99.90;;;;;;5073449;28;20359;-71
2022/06/29 01:35:10;;;;;;;;;;;23.60;99.90;;;;;;5073264;28;19919;-72
2022/06/29 01:37:36;;;;;;;;;;;23.60;99.90;;;;;;5073037;28;19974;-72
2022/06/29 01:40:02;;;;;;;;;;;23.60;99.90;;;;;;5073244;28;19912;-72
2022/06/29 01:42:28;;;;;;;;;;;23.50;99.90;;;;;;5054995;28;19970;-72
2022/06/29 01:44:53;;;;;;;;;;;23.60;99.90;;;;;;5055103;28;19912;-71
2022/06/29 01:47:19;;;;;;;;;;;23.60;99.90;;;;;;5072870;28;19913;-71
2022/06/29 01:49:44;;;;;;;;;;;23.60;99.90;;;;;;5073162;28;20375;-71
2022/06/29 01:52:10;;;;;;;;;;;23.60;99.90;;;;;;5055185;28;19913;-71
2022/06/29 01:54:35;;;;;;;;;;;23.50;99.90;;;;;;5073463;28;19919;-72
2022/06/29 01:57:01;;;;;;;;;;;23.50;99.90;;;;;;5073293;28;20058;-72
2022/06/29 01:59:27;;;;;;;;;;;23.40;99.90;;;;;;5054723;28;19913;-71
2022/06/29 02:01:52;;;;;;;;;;;23.40;99.90;;;;;;5054765;28;20246;-71
2022/06/29 02:04:17;;;;;;;;;;;23.40;99.90;;;;;;5072647;28;19912;-71
2022/06/29 02:06:43;;;;;;;;;;;23.40;99.90;;;;;;5071776;28;19917;-72
2022/06/29 02:09:08;;;;;;;;;;;23.30;99.90;;;;;;5072199;28;19916;-71
2022/06/29 02:11:34;;;;;;;;;;;23.30;99.90;;;;;;5072876;28;19958;-72
2022/06/29 02:13:59;;;;;;;;;;;23.30;99.90;;;;;;5072476;28;19917;-72
2022/06/29 02:16:26;;;;;;;;;;;23.30;99.90;;;;;;5054533;28;20228;-71
2022/06/29 02:18:51;;;;;;;;;;;23.40;99.90;;;;;;5072373;28;19948;-72
2022/06/29 02:21:17;;;;;;;;;;;23.40;99.90;;;;;;5072309;28;19958;-71
2022/06/29 02:23:42;;;;;;;;;;;23.30;99.90;;;;;;5072199;28;19962;-71
2022/06/29 02:26:07;;;;;;;;;;;23.30;99.90;;;;;;5072481;28;20046;-71
2022/06/29 02:28:33;;;;;;;;;;;23.40;99.90;;;;;;5072240;28;19974;-71
2022/06/29 02:36:27;;;;;;;;;;;23.50;99.90;;;;;;5072467;28;19991;-71
2022/06/29 02:38:52;;;;;;;;;;;23.60;99.90;;;;;;5072062;28;19947;-71
2022/06/29 02:41:18;;;;;;;;;;;23.60;99.90;;;;;;5072234;28;19912;-71
2022/06/29 02:43:45;;;;;;;;;;;23.60;99.90;;;;;;5072252;28;19969;-72
2022/06/29 02:46:10;;;;;;;;;;;23.60;99.90;;;;;;5072169;28;19978;-71
2022/06/29 02:48:36;;;;;;;;;;;23.50;99.90;;;;;;5071823;28;19913;-71
2022/06/29 02:51:01;;;;;;;;;;;23.50;99.90;;;;;;5071980;28;20012;-71
2022/06/29 02:53:27;;;;;;;;;;;23.50;99.90;;;;;;5072005;28;20000;-72
2022/06/29 02:55:54;;;;;;;;;;;23.50;99.90;;;;;;5053724;28;19916;-71
2022/06/29 02:58:19;;;;;;;;;;;23.50;99.90;;;;;;5071630;28;19951;-72
2022/06/29 03:00:45;;;;;;;;;;;23.50;99.90;;;;;;5071734;28;20396;-71
2022/06/29 03:03:10;;;;;;;;;;;23.50;99.90;;;;;;5071648;28;20019;-71
2022/06/29 03:05:36;;;;;;;;;;;23.60;99.90;;;;;;5071532;28;19957;-71
2022/06/29 03:08:03;;;;;;;;;;;23.50;99.90;;;;;;5071587;28;19920;-71
2022/06/29 03:10:28;;;;;;;;;;;23.60;99.90;;;;;;5071455;28;20342;-71
2022/06/29 03:12:53;;;;;;;;;;;23.60;99.90;;;;;;5071561;28;19944;-71
2022/06/29 03:15:19;;;;;;;;;;;23.70;99.90;;;;;;5071664;28;19995;-71
2022/06/29 03:17:44;;;;;;;;;;;23.80;99.90;;;;;;5071380;28;20394;-71
2022/06/29 03:20:10;;;;;;;;;;;23.90;99.90;;;;;;5071054;28;19908;-71
2022/06/29 03:22:36;;;;;;;;;;;24.00;99.90;;;;;;5071278;28;19921;-71
2022/06/29 03:25:02;;;;;;;;;;;24.20;99.90;;;;;;5053184;28;19958;-71
2022/06/29 03:27:27;;;;;;;;;;;24.20;99.90;;;;;;5053661;28;20331;-71
2022/06/29 03:29:53;;;;;;;;;;;24.30;99.90;;;;;;5071481;28;19912;-72
2022/06/29 03:32:18;;;;;;;;;;;24.30;99.90;;;;;;5053475;28;19912;-72
2022/06/29 03:34:43;;;;;;;;;;;24.30;99.90;;;;;;5071232;28;19978;-71
2022/06/29 03:37:09;;;;;;;;;;;24.30;99.90;;;;;;5071276;28;20040;-71
2022/06/29 03:39:35;;;;;;;;;;;24.30;99.90;;;;;;5071390;28;20011;-71
2022/06/29 03:42:01;;;;;;;;;;;24.40;99.90;;;;;;5071596;28;20002;-72
2022/06/29 03:44:26;;;;;;;;;;;24.40;99.90;;;;;;5071163;28;20428;-72
2022/06/29 03:46:52;;;;;;;;;;;24.50;99.90;;;;;;5071670;28;19919;-71
2022/06/29 03:49:17;;;;;;;;;;;24.60;99.90;;;;;;5071284;28;19919;-72
2022/06/29 03:51:43;;;;;;;;;;;24.60;99.90;;;;;;5053205;28;19916;-71
2022/06/29 03:54:09;;;;;;;;;;;24.60;99.90;;;;;;5053109;28;19975;-71
2022/06/29 03:56:34;;;;;;;;;;;24.70;99.90;;;;;;5071063;28;19969;-71
2022/06/29 03:59:00;;;;;;;;;;;24.80;99.90;;;;;;5052981;28;20383;-71
2022/06/29 04:01:25;;;;;;;;;;;24.80;99.90;;;;;;5052977;28;19999;-71
2022/06/29 04:03:51;;;;;;;;;;;24.80;99.90;;;;;;5070992;28;19912;-71
2022/06/29 04:06:16;;;;;;;;;;;24.90;99.90;;;;;;5071305;28;19912;-72
2022/06/29 04:08:41;;;;;;;;;;;25.00;99.90;;;;;;5070946;28;19912;-71
2022/06/29 04:11:48;;;;;;;;;;;25.00;99.90;;;;;;5071026;28;19924;-71
2022/06/29 04:13:53;;;;;;;;;;;25.10;99.90;;;;;;5070902;28;19912;-71
2022/06/29 04:16:18;;;;;;;;;;;25.20;99.90;;;;;;5071102;28;19960;-71
2022/06/29 04:18:44;;;;;;;;;;;25.30;99.90;;;;;;5070973;28;19943;-71
2022/06/29 04:21:09;;;;;;;;;;;25.20;99.90;;;;;;5071009;28;20005;-71
2022/06/29 04:23:35;;;;;;;;;;;25.40;99.90;;;;;;5070805;28;19916;-72
2022/06/29 04:26:01;;;;;;;;;;;25.40;99.90;;;;;;5070491;28;19912;-72
2022/06/29 04:28:26;;;;;;;;;;;25.30;99.90;;;;;;5052813;28;20007;-72
2022/06/29 04:30:52;;;;;;;;;;;25.40;99.90;;;;;;5053870;28;19913;-72
2022/06/29 04:33:17;;;;;;;;;;;25.40;99.90;;;;;;5074572;28;19960;-72
2022/06/29 04:35:43;;;;;;;;;;;25.50;99.90;;;;;;5074456;28;20031;-72
2022/06/29 04:38:08;;;;;;;;;;;25.50;99.90;;;;;;5074337;28;19934;-72
2022/06/29 04:40:34;;;;;;;;;;;25.70;99.90;;;;;;5074665;28;19924;-72
2022/06/29 04:42:59;;;;;;;;;;;25.70;99.90;;;;;;5056355;28;19917;-72
2022/06/29 04:48:09;;;;;;;;;;;25.70;99.90;;;;;;5074423;28;19966;-72
2022/06/29 04:50:34;;;;;;;;;;;25.80;99.90;;;;;;5074375;28;19912;-72
2022/06/29 04:53:00;;;;;;;;;;;25.80;99.90;;;;;;5074312;28;19916;-72
2022/06/29 04:55:28;;;;;;;;;;;25.90;99.90;;;;;;5074131;28;20323;-72
2022/06/29 04:57:53;;;;;;;;;;;26.00;99.90;;;;;;5074414;28;19919;-72
2022/06/29 05:00:19;;;;;;;;;;;26.10;99.90;;;;;;5073844;28;20280;-72
2022/06/29 05:02:44;;;;;;;;;;;26.00;99.90;;;;;;5074159;28;20253;-73
2022/06/29 05:05:10;;;;;;;;;;;26.10;99.90;;;;;;5073895;28;19913;-73
2022/06/29 05:07:35;;;;;;;;;;;26.10;99.90;;;;;;5073911;28;19912;-72
2022/06/29 05:10:01;;;;;;;;;;;26.00;99.90;;;;;;5074238;28;19909;-72
2022/06/29 05:12:26;;;;;;;;;;;26.00;99.90;;;;;;5073701;28;19995;-72
2022/06/29 05:14:52;;;;;;;;;;;26.00;99.90;;;;;;5073828;28;19916;-72
2022/06/29 05:17:17;;;;;;;;;;;26.00;99.90;;;;;;5074259;28;20386;-72
2022/06/29 05:19:43;;;;;;;;;;;26.10;99.90;;;;;;5073936;28;19935;-72
2022/06/29 05:22:08;;;;;;;;;;;26.00;99.90;;;;;;5073964;28;19923;-72
2022/06/29 05:24:34;;;;;;;;;;;26.10;99.90;;;;;;5073618;28;20387;-72
2022/06/29 05:26:59;;;;;;;;;;;26.10;99.90;;;;;;5073860;28;19999;-72
2022/06/29 05:29:25;;;;;;;;;;;26.10;99.90;;;;;;5073407;28;19923;-72
2022/06/29 05:31:51;;;;;;;;;;;26.10;99.90;;;;;;5073840;28;19912;-72
2022/06/29 05:34:17;;;;;;;;;;;26.20;99.90;;;;;;5073061;28;20369;-72
2022/06/29 05:36:42;;;;;;;;;;;26.30;99.90;;;;;;5055219;28;19999;-72
2022/06/29 05:39:08;;;;;;;;;;;26.40;99.90;;;;;;5072965;28;19919;-72
2022/06/29 05:41:33;;;;;;;;;;;26.40;99.90;;;;;;5072576;28;20096;-72
2022/06/29 05:43:59;;;;;;;;;;;26.60;99.90;;;;;;5073227;28;20019;-72
2022/06/29 05:46:25;;;;;;;;;;;26.60;99.90;;;;;;5055636;28;19916;-73
2022/06/29 05:48:50;;;;;;;;;;;26.70;99.90;;;;;;5073145;28;19913;-73
2022/06/29 05:51:16;;;;;;;;;;;26.80;99.90;;;;;;5072961;28;19912;-72
2022/06/29 05:53:41;;;;;;;;;;;26.80;99.90;;;;;;5054966;28;20453;-71
2022/06/29 05:56:06;;;;;;;;;;;26.80;99.90;;;;;;5073035;28;19913;-71
2022/06/29 05:58:32;;;;;;;;;;;26.90;99.90;;;;;;5072935;28;19922;-72
2022/06/29 06:00:57;;;;;;;;;;;26.90;99.90;;;;;;5073179;28;20241;-72
2022/06/29 06:03:23;;;;;;;;;;;26.90;99.90;;;;;;5072703;28;20325;-72
2022/06/29 06:05:49;;;;;;;;;;;26.90;99.90;;;;;;5072659;28;19919;-72
2022/06/29 06:08:15;;;;;;;;;;;26.90;99.90;;;;;;5072740;28;20076;-73
2022/06/29 06:10:41;;;;;;;;;;;27.00;99.90;;;;;;5072644;28;19936;-72
2022/06/29 06:13:06;;;;;;;;;;;27.10;99.90;;;;;;5072632;28;20338;-73
2022/06/29 06:15:35;;;;;;;;;;;27.20;99.90;;;;;;5072724;28;20003;-73
2022/06/29 06:18:01;;;;;;;;;;;27.20;99.90;;;;;;5072601;28;19912;-73
2022/06/29 06:20:27;;;;;;;;;;;27.20;99.90;;;;;;5072487;28;20076;-73
2022/06/29 06:22:53;;;;;;;;;;;27.30;99.90;;;;;;5072439;28;19984;-71
2022/06/29 06:25:18;;;;;;;;;;;27.30;99.90;;;;;;5072393;28;19915;-71
2022/06/29 06:27:44;;;;;;;;;;;27.30;99.90;;;;;;5054779;28;19931;-73
2022/06/29 06:30:10;;;;;;;;;;;27.30;99.90;;;;;;5054267;28;19908;-72
2022/06/29 06:32:35;;;;;;;;;;;27.50;99.90;;;;;;5072254;28;19913;-73
2022/06/29 06:35:01;;;;;;;;;;;27.60;99.90;;;;;;5072444;28;19920;-72
2022/06/29 06:37:26;;;;;;;;;;;27.60;99.90;;;;;;5071997;28;19974;-72
2022/06/29 06:42:36;;;;;;;;;;;27.70;99.90;;;;;;5071968;28;19971;-72
2022/06/29 06:45:01;;;;;;;;;;;27.80;99.90;;;;;;5072042;28;19955;-72
2022/06/29 06:47:27;;;;;;;;;;;27.90;99.90;;;;;;5072265;28;19913;-72
2022/06/29 06:49:52;;;;;;;;;;;28.00;99.90;;;;;;5071943;28;20296;-72
2022/06/29 06:52:18;;;;;;;;;;;28.10;99.90;;;;;;5072127;28;19920;-73
2022/06/29 06:54:46;;;;;;;;;;;28.00;99.90;;;;;;5071536;28;19923;-73
2022/06/29 06:57:12;;;;;;;;;;;28.10;99.90;;;;;;5071189;28;19913;-72
2022/06/29 06:59:38;;;;;;;;;;;28.10;99.90;;;;;;5071675;28;19958;-72
2022/06/29 07:02:04;;;;;;;;;;;28.30;99.90;;;;;;5072160;28;19923;-73
2022/06/29 07:04:29;;;;;;;;;;;28.40;99.90;;;;;;5053648;28;19916;-72
2022/06/29 07:06:55;;;;;;;;;;;28.50;99.90;;;;;;5072177;28;19912;-73
2022/06/29 07:09:20;;;;;;;;;;;28.60;99.90;;;;;;5071322;28;19974;-71
2022/06/29 07:11:45;;;;;;;;;;;28.70;99.90;;;;;;5053864;28;20387;-72
2022/06/29 07:14:11;;;;;;;;;;;28.80;99.90;;;;;;5071319;28;19935;-72
2022/06/29 07:16:36;;;;;;;;;;;28.90;99.90;;;;;;5071946;28;19942;-71
2022/06/29 07:19:02;;;;;;;;;;;29.00;99.90;;;;;;5071283;28;19913;-72
2022/06/29 07:21:27;;;;;;;;;;;29.00;99.90;;;;;;5071325;28;20027;-71
2022/06/29 07:23:58;;;;;;;;;;;29.10;99.90;;;;;;5071312;28;19912;-71
2022/06/29 07:26:26;;;;;;;;;;;29.10;99.90;;;;;;5071592;28;20343;-72
2022/06/29 07:28:52;;;;;;;;;;;29.20;99.90;;;;;;5071092;28;19966;-72
2022/06/29 07:31:18;;;;;;;;;;;29.30;99.90;;;;;;5071682;28;19938;-72
2022/06/29 07:33:44;;;;;;;;;;;29.20;99.90;;;;;;5071085;28;19919;-72
2022/06/29 07:36:09;;;;;;;;;;;29.20;99.90;;;;;;5053213;28;19913;-72
2022/06/29 07:38:35;;;;;;;;;;;29.30;99.90;;;;;;5053018;28;19913;-72
2022/06/29 07:41:01;;;;;;;;;;;29.50;99.90;;;;;;5071572;28;20272;-73
2022/06/29 07:43:27;;;;;;;;;;;29.70;99.90;;;;;;5068618;28;19928;-73
2022/06/29 07:45:53;;;;;;;;;;;29.90;99.90;;;;;;5052190;28;19916;-72
2022/06/29 07:48:18;;;;;;;;;;;29.80;99.90;;;;;;5057402;28;19924;-73
2022/06/29 07:50:44;;;;;;;;;;;29.90;99.90;;;;;;5041579;28;19978;-73
2022/06/29 07:53:10;;;;;;;;;;;30.00;99.90;;;;;;5051930;28;19956;-67
2022/06/29 07:55:36;;;;;;;;;;;30.20;99.90;;;;;;5069136;28;19918;-66
2022/06/29 07:58:01;;;;;;;;;;;30.40;99.90;;;;;;5068913;28;20438;-67
2022/06/29 08:00:27;;;;;;;;;;;30.50;99.90;;;;;;5068210;28;20344;-67
2022/06/29 08:02:52;;;;;;;;;;;30.60;99.90;;;;;;5068730;28;19920;-67
2022/06/29 08:05:18;;;;;;;;;;;30.60;99.90;;;;;;5071623;28;19908;-67
2022/06/29 08:07:43;;;;;;;;;;;30.70;99.90;;;;;;5073735;28;19912;-67
2022/06/29 08:10:09;;;;;;;;;;;30.80;99.90;;;;;;5074477;28;20368;-67
2022/06/29 08:12:35;;;;;;;;;;;30.50;99.90;;;;;;5074728;28;19939;-67
2022/06/29 08:15:00;;;;;;;;;;;30.50;99.90;;;;;;5074814;28;19915;-67
2022/06/29 08:17:26;;;;;;;;;;;30.80;99.90;;;;;;5075186;28;20325;-67
2022/06/29 08:19:52;;;;;;;;;;;31.00;99.90;;;;;;5075026;28;20296;-67
2022/06/29 08:22:17;;;;;;;;;;;31.50;99.90;;;;;;5074983;28;20299;-67
2022/06/29 08:24:43;;;;;;;;;;;31.80;99.90;;;;;;5074569;28;19912;-67
2022/06/29 08:27:09;;;;;;;;;;;32.00;99.90;;;;;;5075023;28;19919;-75
2022/06/29 08:29:34;;;;;;;;;;;32.20;99.20;;;;;;5074445;28;19996;-74
2022/06/29 08:32:00;;;;;;;;;;;32.20;98.60;;;;;;5075141;28;19913;-74
2022/06/29 08:34:46;;;;;;;;;;;32.30;98.60;;;;;;5055490;28;19912;-75
2022/06/29 08:37:11;;;;;;;;;;;32.40;98.10;;;;;;5074234;28;19920;-75
2022/06/29 08:39:36;;;;;;;;;;;32.60;98.00;;;;;;5074351;28;20012;-75
2022/06/29 08:42:04;;;;;;;;;;;32.60;97.20;;;;;;5074685;28;19923;-68
2022/06/29 08:44:32;;;;;;;;;;;32.70;96.40;;;;;;5074107;28;20276;-68
2022/06/29 08:46:58;;;;;;;;;;;32.50;96.50;;;;;;5074496;28;19970;-68
2022/06/29 08:49:24;;;;;;;;;;;32.60;96.00;;;;;;5074668;28;19923;-68
2022/06/29 08:51:51;;;;;;;;;;;32.50;95.50;;;;;;5074477;28;20389;-67
2022/06/29 08:54:17;;;;;;;;;;;32.50;95.20;;;;;;5073716;28;19981;-68
2022/06/29 08:56:43;;;;;;;;;;;32.70;95.60;;;;;;5074223;28;19912;-68
2022/06/29 08:59:09;;;;;;;;;;;33.00;95.20;;;;;;5073661;28;19912;-68
2022/06/29 09:01:36;;;;;;;;;;;33.40;94.30;;;;;;5073793;28;19921;-67
2022/06/29 09:04:02;;;;;;;;;;;33.70;94.00;;;;;;5073905;28;19912;-67
2022/06/29 09:06:27;;;;;;;;;;;33.90;93.40;;;;;;5073523;28;19912;-68
2022/06/29 09:08:53;;;;;;;;;;;34.10;92.80;;;;;;5073893;28;19913;-68
2022/06/29 09:11:28;;;;;;;;;;;34.10;91.90;;;;;;5073619;28;19962;-68
2022/06/29 09:14:09;;;;;;;;;;;34.00;92.30;;;;;;5073323;28;19916;-68
2022/06/29 09:16:54;;;;;;;;;;;34.10;92.50;;;;;;5073226;28;20283;-68
2022/06/29 09:19:20;;;;;;;;;;;34.20;92.40;;;;;;5073265;28;19913;-68
2022/06/29 09:21:46;;;;;;;;;;;34.30;92.40;;;;;;5073709;28;20377;-68
2022/06/29 09:24:15;;;;;;;;;;;34.20;92.60;;;;;;5055436;28;19991;-68
2022/06/29 09:26:40;;;;;;;;;;;34.40;91.80;;;;;;5072884;28;20416;-69
2022/06/29 09:29:17;;;;;;;;;;;34.50;91.50;;;;;;5055231;28;20401;-67
2022/06/29 09:31:43;;;;;;;;;;;34.50;91.00;;;;;;5073354;28;19958;-67
2022/06/29 09:34:18;;;;;;;;;;;34.50;91.60;;;;;;5072879;28;19916;-68
2022/06/29 09:36:55;;;;;;;;;;;34.60;91.40;;;;;;5073275;28;19967;-68
2022/06/29 09:39:41;;;;;;;;;;;34.70;91.00;;;;;;5072919;28;20012;-68
2022/06/29 09:42:08;;;;;;;;;;;34.40;89.30;;;;;;5073215;28;19975;-68
2022/06/29 09:44:33;;;;;;;;;;;34.10;90.10;;;;;;5073072;28;20357;-67
2022/06/29 09:47:01;;;;;;;;;;;34.20;88.10;;;;;;5055183;28;19908;-67
2022/06/29 09:49:28;;;;;;;;;;;34.50;88.20;;;;;;5073010;28;20383;-68
2022/06/29 09:51:58;;;;;;;;;;;34.90;87.50;;;;;;5073031;28;19912;-67
2022/06/29 09:54:25;;;;;;;;;;;35.30;86.00;;;;;;5038277;28;20387;-67
2022/06/29 09:56:51;;;;;;;;;;;35.40;81.00;;;;;;5073116;28;19908;-67
2022/06/29 10:02:37;;;;;;;;;;;35.20;83.50;;;;;;5056970;28;19959;-67
2022/06/29 10:05:06;;;;;;;;;;;34.90;85.10;;;;;;5072756;28;19913;-67
2022/06/29 10:07:32;;;;;;;;;;;35.00;84.00;;;;;;5072878;28;20424;-68
2022/06/29 10:09:59;;;;;;;;;;;35.00;82.90;;;;;;5072636;28;19931;-67
2022/06/29 10:15:37;;;;;;;;;;;34.90;81.90;;;;;;5072620;28;20331;-67
2022/06/29 10:18:25;;;;;;;;;;;35.30;81.50;;;;;;5072579;28;19909;-67
2022/06/29 10:20:51;;;;;;;;;;;35.60;81.90;;;;;;5064139;28;20370;-68
2022/06/29 10:23:35;;;;;;;;;;;36.10;81.00;;;;;;5072279;28;19927;-68
2022/06/29 10:26:01;;;;;;;;;;;36.50;80.70;;;;;;5072139;28;19909;-68
2022/06/29 10:28:26;;;;;;;;;;;36.50;79.80;;;;;;5071164;28;19924;-68
2022/06/29 10:30:54;;;;;;;;;;;36.70;79.00;;;;;;5071871;28;19915;-68
2022/06/29 10:33:28;;;;;;;;;;;36.90;78.10;;;;;;5072158;28;19917;-68
2022/06/29 10:36:07;;;;;;;;;;;36.90;78.10;;;;;;5071851;28;19909;-67
2022/06/29 10:38:55;;;;;;;;;;;37.00;76.30;;;;;;5051872;28;19932;-68
2022/06/29 10:44:05;;;;;;;;;;;37.10;75.80;;;;;;5052193;28;20031;-68
2022/06/29 10:46:49;;;;;;;;;;;36.70;75.10;;;;;;5052048;28;20025;-68
2022/06/29 10:49:21;;;;;;;;;;;36.20;77.00;;;;;;5051756;28;20368;-68
2022/06/29 10:51:49;;;;;;;;;;;35.90;76.70;;;;;;5052019;28;19909;-68
2022/06/29 10:54:22;;;;;;;;;;;35.80;77.50;;;;;;5050427;28;20016;-68
2022/06/29 10:56:48;;;;;;;;;;;35.50;77.80;;;;;;5052027;28;20271;-68
2022/06/29 10:59:48;;;;;;;;;;;35.30;77.80;;;;;;5051663;28;20011;-68
2022/06/29 11:02:15;;;;;;;;;;;34.80;79.40;;;;;;5009113;28;19913;-68
2022/06/29 11:04:41;;;;;;;;;;;35.10;76.00;;;;;;5042831;28;20315;-68
2022/06/29 11:12:45;;;;;;;;;;;35.30;74.60;;;;;;5051717;28;19978;-68
2022/06/29 11:17:55;;;;;;;;;;;35.40;74.30;;;;;;5051619;28;19927;-68
2022/06/29 11:20:21;;;;;;;;;;;35.50;75.10;;;;;;5051418;28;19991;-69
2022/06/29 11:22:51;;;;;;;;;;;35.70;74.60;;;;;;5051417;28;19921;-68
2022/06/29 11:25:16;;;;;;;;;;;35.80;74.40;;;;;;5051224;28;20375;-68
2022/06/29 11:27:42;;;;;;;;;;;35.70;74.90;;;;;;5049871;28;20023;-68
2022/06/29 11:30:11;;;;;;;;;;;35.70;75.20;;;;;;5051502;28;20000;-68
2022/06/29 11:32:40;;;;;;;;;;;35.80;74.70;;;;;;5051442;28;20391;-68
2022/06/29 11:35:06;;;;;;;;;;;36.00;72.80;;;;;;5051258;28;19947;-68
2022/06/29 11:37:32;;;;;;;;;;;36.20;72.10;;;;;;5063768;28;20023;-68
2022/06/29 11:39:57;;;;;;;;;;;36.50;72.10;;;;;;5070578;28;20003;-68
2022/06/29 11:45:16;;;;;;;;;;;36.30;74.40;;;;;;5070998;28;19966;-68
2022/06/29 11:47:51;;;;;;;;;;;36.10;75.00;;;;;;5070837;28;20318;-68
2022/06/29 11:50:17;;;;;;;;;;;35.70;72.60;;;;;;5070819;28;19957;-67
2022/06/29 11:52:44;;;;;;;;;;;34.60;75.30;;;;;;5071179;28;19920;-67
2022/06/29 11:55:10;;;;;;;;;;;34.40;76.50;;;;;;5070937;28;20045;-67
2022/06/29 11:57:35;;;;;;;;;;;34.30;74.80;;;;;;5070799;28;19921;-68
2022/06/29 12:00:08;;;;;;;;;;;34.00;75.90;;;;;;5070718;28;20351;-68
2022/06/29 12:02:34;;;;;;;;;;;33.80;76.80;;;;;;5070568;28;19920;-67
2022/06/29 12:05:03;;;;;;;;;;;33.40;75.80;;;;;;5052740;28;19916;-67
2022/06/29 12:07:29;;;;;;;;;;;33.30;77.00;;;;;;5070505;28;19947;-68
2022/06/29 12:09:55;;;;;;;;;;;33.60;76.70;;;;;;5070720;28;19908;-68
2022/06/29 12:12:21;;;;;;;;;;;33.50;77.50;;;;;;5070751;28;19912;-68
2022/06/29 12:14:46;;;;;;;;;;;33.30;78.30;;;;;;5070984;28;20353;-67
2022/06/29 12:17:15;;;;;;;;;;;32.90;79.10;;;;;;5070898;28;20021;-68
2022/06/29 12:19:42;;;;;;;;;;;32.60;79.90;;;;;;5070713;28;19912;-67
2022/06/29 12:22:07;;;;;;;;;;;32.30;80.90;;;;;;5070278;28;20019;-67
2022/06/29 12:24:33;;;;;;;;;;;31.90;81.90;;;;;;5070517;28;20152;-68
2022/06/29 12:26:58;;;;;;;;;;;31.50;83.50;;;;;;5070355;28;19913;-67
2022/06/29 12:29:24;;;;;;;;;;;31.20;86.20;;;;;;5052130;28;19913;-68
2022/06/29 12:31:49;;;;;;;;;;;31.10;87.90;;;;;;5070629;28;19913;-67
2022/06/29 12:34:15;;;;;;;;;;;31.10;88.80;;;;;;5070252;28;20279;-67
2022/06/29 12:36:42;;;;;;;;;;;31.00;90.00;;;;;;5070651;28;20015;-68
2022/06/29 12:39:08;;;;;;;;;;;30.80;88.70;;;;;;5070277;28;19935;-68
2022/06/29 12:41:34;;;;;;;;;;;30.60;88.80;;;;;;5070902;28;19939;-68
2022/06/29 12:44:02;;;;;;;;;;;30.50;89.20;;;;;;5070422;28;20374;-66
2022/06/29 12:46:28;;;;;;;;;;;30.50;89.70;;;;;;5070654;28;19996;-67
2022/06/29 12:48:54;;;;;;;;;;;30.40;86.90;;;;;;5070222;28;19912;-68
2022/06/29 12:51:20;;;;;;;;;;;30.30;86.50;;;;;;5070930;28;19927;-67
2022/06/29 12:53:45;;;;;;;;;;;30.20;87.20;;;;;;5073762;28;19916;-67
2022/06/29 12:56:11;;;;;;;;;;;30.20;87.00;;;;;;5073801;28;19920;-67
2022/06/29 12:58:36;;;;;;;;;;;30.30;87.60;;;;;;5073717;28;19912;-68
2022/06/29 13:01:02;;;;;;;;;;;30.30;88.40;;;;;;5073846;28;20257;-67
2022/06/29 13:03:27;;;;;;;;;;;30.20;88.50;;;;;;5073835;28;20394;-68
2022/06/29 13:05:53;;;;;;;;;;;30.20;88.50;;;;;;5073864;28;19919;-67
2022/06/29 13:08:18;;;;;;;;;;;30.20;90.30;;;;;;5073672;28;19912;-68
2022/06/29 13:10:45;;;;;;;;;;;30.10;92.00;;;;;;5073726;28;19912;-68
2022/06/29 13:13:10;;;;;;;;;;;29.90;92.70;;;;;;5073657;28;19923;-67
2022/06/29 13:15:36;;;;;;;;;;;29.70;92.60;;;;;;5073656;28;20247;-67
2022/06/29 13:18:04;;;;;;;;;;;29.60;92.50;;;;;;5055316;28;20445;-67
2022/06/29 13:20:30;;;;;;;;;;;29.50;92.60;;;;;;5055318;28;19912;-67
2022/06/29 13:22:55;;;;;;;;;;;29.40;94.50;;;;;;5073305;28;19918;-68
2022/06/29 13:25:21;;;;;;;;;;;29.30;95.00;;;;;;5073403;28;19913;-68
2022/06/29 13:27:47;;;;;;;;;;;29.30;95.80;;;;;;5073423;28;19913;-68
2022/06/29 13:30:12;;;;;;;;;;;29.20;95.40;;;;;;5072991;28;19935;-66
2022/06/29 13:32:38;;;;;;;;;;;29.20;94.50;;;;;;5073222;28;20375;-68
2022/06/29 13:35:03;;;;;;;;;;;29.10;94.00;;;;;;5073233;28;19916;-67
2022/06/29 13:37:29;;;;;;;;;;;28.90;92.30;;;;;;5073471;28;20023;-67
2022/06/29 13:39:54;;;;;;;;;;;28.40;91.70;;;;;;5073004;28;19913;-67
2022/06/29 13:42:20;;;;;;;;;;;28.00;92.00;;;;;;5073321;28;19920;-67
2022/06/29 13:44:45;;;;;;;;;;;27.60;92.70;;;;;;5055070;28;19961;-68
2022/06/29 13:47:11;;;;;;;;;;;27.20;94.40;;;;;;5073413;28;20027;-68
2022/06/29 13:49:36;;;;;;;;;;;26.80;95.90;;;;;;5072806;28;19912;-68
2022/06/29 13:52:02;;;;;;;;;;;26.40;97.80;;;;;;5073278;28;19962;-69
2022/06/29 13:54:28;;;;;;;;;;;26.10;99.50;;;;;;5072883;28;19977;-66
2022/06/29 13:56:54;;;;;;;;;;;25.90;99.90;;;;;;5073111;28;20016;-66
2022/06/29 13:59:19;;;;;;;;;;;25.80;99.90;;;;;;5072614;28;20079;-67
2022/06/29 14:01:45;;;;;;;;;;;25.70;99.90;;;;;;5072934;28;20419;-67
2022/06/29 14:04:10;;;;;;;;;;;25.60;99.90;;;;;;5062552;28;20007;-67
2022/06/29 14:06:36;;;;;;;;;;;25.60;99.90;;;;;;5065102;28;19931;-67
2022/06/29 14:09:02;;;;;;;;;;;25.50;99.90;;;;;;5057004;28;20004;-67
2022/06/29 14:11:28;;;;;;;;;;;25.40;99.90;;;;;;5051985;28;20364;-68
2022/06/29 14:13:53;;;;;;;;;;;25.20;99.90;;;;;;5061347;28;20301;-68
2022/06/29 14:16:19;;;;;;;;;;;25.10;99.90;;;;;;5054046;28;19964;-68
2022/06/29 14:18:44;;;;;;;;;;;25.00;99.90;;;;;;5058785;28;19917;-68
2022/06/29 14:21:10;;;;;;;;;;;24.90;99.90;;;;;;5056716;28;20032;-68
2022/06/29 14:23:36;;;;;;;;;;;24.80;99.90;;;;;;5046237;28;19975;-68
2022/06/29 14:26:02;;;;;;;;;;;24.90;99.90;;;;;;5054736;28;19959;-68
2022/06/29 14:28:27;;;;;;;;;;;24.70;99.90;;;;;;5051926;28;19913;-69
2022/06/29 14:30:53;;;;;;;;;;;24.70;99.90;;;;;;5052014;28;19940;-68
2022/06/29 14:33:18;;;;;;;;;;;24.60;99.90;;;;;;5051476;28;19917;-69
2022/06/29 14:35:45;;;;;;;;;;;24.50;99.90;;;;;;5056409;28;19936;-68
2022/06/29 14:38:11;;;;;;;;;;;24.50;99.90;;;;;;5056542;28;19924;-69
2022/06/29 14:40:36;;;;;;;;;;;24.40;99.90;;;;;;5059276;28;19970;-68
2022/06/29 14:43:02;;;;;;;;;;;24.30;99.90;;;;;;5063567;28;20471;-69